sensor_id;sensor_type;location;lat;lon;timestamp;P1;durP1;ratioP1;P2;durP2;ratioP2
49458;SDS011;35354;51.296;16.924;2023-12-07T00:01:07;229.30;;;129.15;;
49458;SDS011;35354;51.296;16.924;2023-12-07T00:03:32;177.60;;;92.90;;
49458;SDS011;35354;51.296;16.924;2023-12-07T00:05:57;185.32;;;99.53;;
49458;SDS011;35354;51.296;16.924;2023-12-07T00:08:23;179.88;;;90.90;;
49458;SDS011;35354;51.296;16.924;2023-12-07T00:10:48;176.77;;;89.55;;
49458;SDS011;35354;51.296;16.924;2023-12-07T00:13:13;180.38;;;93.75;;
49458;SDS011;35354;51.296;16.924;2023-12-07T00:15:39;168.90;;;86.25;;
49458;SDS011;35354;51.296;16.924;2023-12-07T00:18:04;167.88;;;87.88;;
49458;SDS011;35354;51.296;16.924;2023-12-07T00:20:30;161.68;;;84.43;;
49458;SDS011;35354;51.296;16.924;2023-12-07T00:22:55;160.00;;;84.65;;
49458;SDS011;35354;51.296;16.924;2023-12-07T00:25:21;165.77;;;86.25;;
49458;SDS011;35354;51.296;16.924;2023-12-07T00:27:47;162.13;;;82.47;;
49458;SDS011;35354;51.296;16.924;2023-12-07T00:30:13;159.10;;;82.22;;
49458;SDS011;35354;51.296;16.924;2023-12-07T00:32:38;151.40;;;81.75;;
49458;SDS011;35354;51.296;16.924;2023-12-07T00:35:05;162.77;;;85.95;;
49458;SDS011;35354;51.296;16.924;2023-12-07T00:37:30;168.25;;;84.78;;
49458;SDS011;35354;51.296;16.924;2023-12-07T00:39:56;152.88;;;78.28;;
49458;SDS011;35354;51.296;16.924;2023-12-07T00:42:21;164.93;;;84.65;;
49458;SDS011;35354;51.296;16.924;2023-12-07T00:44:47;163.00;;;84.65;;
49458;SDS011;35354;51.296;16.924;2023-12-07T00:47:12;168.45;;;85.57;;
49458;SDS011;35354;51.296;16.924;2023-12-07T00:49:38;161.13;;;84.55;;
49458;SDS011;35354;51.296;16.924;2023-12-07T00:52:05;169.23;;;87.25;;
49458;SDS011;35354;51.296;16.924;2023-12-07T00:54:31;159.15;;;80.85;;
49458;SDS011;35354;51.296;16.924;2023-12-07T00:56:56;155.38;;;80.22;;
49458;SDS011;35354;51.296;16.924;2023-12-07T00:59:22;157.48;;;81.07;;
49458;SDS011;35354;51.296;16.924;2023-12-07T01:01:48;156.80;;;79.05;;
49458;SDS011;35354;51.296;16.924;2023-12-07T01:04:13;156.40;;;80.18;;
49458;SDS011;35354;51.296;16.924;2023-12-07T01:06:39;156.88;;;78.47;;
49458;SDS011;35354;51.296;16.924;2023-12-07T01:09:04;157.50;;;80.70;;
49458;SDS011;35354;51.296;16.924;2023-12-07T01:11:29;150.70;;;77.38;;
49458;SDS011;35354;51.296;16.924;2023-12-07T01:13:55;162.15;;;82.18;;
49458;SDS011;35354;51.296;16.924;2023-12-07T01:16:21;168.23;;;82.32;;
49458;SDS011;35354;51.296;16.924;2023-12-07T01:18:46;160.05;;;77.47;;
49458;SDS011;35354;51.296;16.924;2023-12-07T01:21:11;153.27;;;79.60;;
49458;SDS011;35354;51.296;16.924;2023-12-07T01:23:37;148.43;;;75.40;;
49458;SDS011;35354;51.296;16.924;2023-12-07T01:26:02;157.52;;;80.00;;
49458;SDS011;35354;51.296;16.924;2023-12-07T01:28:28;146.60;;;76.85;;
49458;SDS011;35354;51.296;16.924;2023-12-07T01:30:53;151.98;;;78.40;;
49458;SDS011;35354;51.296;16.924;2023-12-07T01:33:19;153.73;;;79.13;;
49458;SDS011;35354;51.296;16.924;2023-12-07T01:35:45;151.05;;;76.38;;
49458;SDS011;35354;51.296;16.924;2023-12-07T01:38:10;148.55;;;78.10;;
49458;SDS011;35354;51.296;16.924;2023-12-07T01:40:36;158.50;;;79.05;;
49458;SDS011;35354;51.296;16.924;2023-12-07T01:43:01;147.75;;;77.38;;
49458;SDS011;35354;51.296;16.924;2023-12-07T01:45:26;154.30;;;78.93;;
49458;SDS011;35354;51.296;16.924;2023-12-07T01:47:52;155.55;;;79.15;;
49458;SDS011;35354;51.296;16.924;2023-12-07T01:50:19;160.05;;;80.53;;
49458;SDS011;35354;51.296;16.924;2023-12-07T01:52:48;146.93;;;76.05;;
49458;SDS011;35354;51.296;16.924;2023-12-07T01:55:17;147.93;;;77.60;;
49458;SDS011;35354;51.296;16.924;2023-12-07T01:57:43;157.10;;;79.88;;
49458;SDS011;35354;51.296;16.924;2023-12-07T02:00:10;151.90;;;76.53;;
49458;SDS011;35354;51.296;16.924;2023-12-07T02:02:37;154.77;;;80.63;;
49458;SDS011;35354;51.296;16.924;2023-12-07T02:05:04;150.82;;;79.72;;
49458;SDS011;35354;51.296;16.924;2023-12-07T02:07:30;151.52;;;78.22;;
49458;SDS011;35354;51.296;16.924;2023-12-07T02:09:57;163.00;;;81.57;;
49458;SDS011;35354;51.296;16.924;2023-12-07T02:12:23;158.50;;;81.10;;
49458;SDS011;35354;51.296;16.924;2023-12-07T02:14:49;161.07;;;76.65;;
49458;SDS011;35354;51.296;16.924;2023-12-07T02:17:19;154.77;;;76.90;;
49458;SDS011;35354;51.296;16.924;2023-12-07T02:25:07;149.10;;;75.90;;
49458;SDS011;35354;51.296;16.924;2023-12-07T02:27:35;149.18;;;75.00;;
49458;SDS011;35354;51.296;16.924;2023-12-07T02:30:02;149.43;;;76.97;;
49458;SDS011;35354;51.296;16.924;2023-12-07T02:32:27;154.60;;;76.07;;
49458;SDS011;35354;51.296;16.924;2023-12-07T02:34:53;155.02;;;78.70;;
49458;SDS011;35354;51.296;16.924;2023-12-07T02:37:19;158.85;;;81.45;;
49458;SDS011;35354;51.296;16.924;2023-12-07T02:39:47;152.50;;;78.32;;
49458;SDS011;35354;51.296;16.924;2023-12-07T02:42:13;151.85;;;76.25;;
49458;SDS011;35354;51.296;16.924;2023-12-07T02:44:39;149.35;;;73.53;;
49458;SDS011;35354;51.296;16.924;2023-12-07T02:47:05;157.85;;;78.22;;
49458;SDS011;35354;51.296;16.924;2023-12-07T02:49:31;160.88;;;77.80;;
49458;SDS011;35354;51.296;16.924;2023-12-07T02:51:56;142.80;;;73.57;;
49458;SDS011;35354;51.296;16.924;2023-12-07T02:54:21;160.75;;;82.22;;
49458;SDS011;35354;51.296;16.924;2023-12-07T02:56:48;144.50;;;75.82;;
49458;SDS011;35354;51.296;16.924;2023-12-07T02:59:13;156.07;;;78.55;;
49458;SDS011;35354;51.296;16.924;2023-12-07T03:01:39;154.38;;;77.22;;
49458;SDS011;35354;51.296;16.924;2023-12-07T03:04:04;151.18;;;77.32;;
49458;SDS011;35354;51.296;16.924;2023-12-07T03:06:29;154.82;;;77.38;;
49458;SDS011;35354;51.296;16.924;2023-12-07T03:08:54;145.93;;;74.20;;
49458;SDS011;35354;51.296;16.924;2023-12-07T03:11:21;144.65;;;77.38;;
49458;SDS011;35354;51.296;16.924;2023-12-07T03:13:46;146.65;;;78.60;;
49458;SDS011;35354;51.296;16.924;2023-12-07T03:16:12;154.73;;;80.22;;
49458;SDS011;35354;51.296;16.924;2023-12-07T03:18:37;152.02;;;76.10;;
49458;SDS011;35354;51.296;16.924;2023-12-07T03:21:02;155.77;;;80.03;;
49458;SDS011;35354;51.296;16.924;2023-12-07T03:23:28;145.50;;;76.47;;
49458;SDS011;35354;51.296;16.924;2023-12-07T03:25:53;148.77;;;78.72;;
49458;SDS011;35354;51.296;16.924;2023-12-07T03:28:18;149.70;;;76.47;;
49458;SDS011;35354;51.296;16.924;2023-12-07T03:30:44;162.02;;;79.60;;
49458;SDS011;35354;51.296;16.924;2023-12-07T03:33:09;156.20;;;76.20;;
49458;SDS011;35354;51.296;16.924;2023-12-07T03:35:34;148.02;;;76.63;;
49458;SDS011;35354;51.296;16.924;2023-12-07T03:38:00;154.85;;;76.53;;
49458;SDS011;35354;51.296;16.924;2023-12-07T03:40:25;151.75;;;75.53;;
49458;SDS011;35354;51.296;16.924;2023-12-07T03:42:51;151.63;;;74.85;;
49458;SDS011;35354;51.296;16.924;2023-12-07T03:45:16;147.02;;;75.50;;
49458;SDS011;35354;51.296;16.924;2023-12-07T03:47:41;145.02;;;73.82;;
49458;SDS011;35354;51.296;16.924;2023-12-07T03:50:07;139.73;;;74.90;;
49458;SDS011;35354;51.296;16.924;2023-12-07T03:52:32;152.55;;;78.97;;
49458;SDS011;35354;51.296;16.924;2023-12-07T03:54:58;153.35;;;78.38;;
49458;SDS011;35354;51.296;16.924;2023-12-07T03:57:23;161.88;;;83.35;;
49458;SDS011;35354;51.296;16.924;2023-12-07T03:59:48;161.07;;;80.10;;
49458;SDS011;35354;51.296;16.924;2023-12-07T04:02:14;157.55;;;80.38;;
49458;SDS011;35354;51.296;16.924;2023-12-07T04:04:39;158.77;;;80.10;;
49458;SDS011;35354;51.296;16.924;2023-12-07T04:07:04;149.90;;;77.70;;
49458;SDS011;35354;51.296;16.924;2023-12-07T04:09:30;156.65;;;79.18;;
49458;SDS011;35354;51.296;16.924;2023-12-07T04:11:55;154.65;;;79.10;;
49458;SDS011;35354;51.296;16.924;2023-12-07T04:14:21;154.88;;;78.10;;
49458;SDS011;35354;51.296;16.924;2023-12-07T04:16:46;159.15;;;80.78;;
49458;SDS011;35354;51.296;16.924;2023-12-07T04:19:12;156.45;;;79.35;;
49458;SDS011;35354;51.296;16.924;2023-12-07T04:21:38;154.65;;;79.63;;
49458;SDS011;35354;51.296;16.924;2023-12-07T04:24:03;159.88;;;80.95;;
49458;SDS011;35354;51.296;16.924;2023-12-07T04:26:29;158.88;;;79.80;;
49458;SDS011;35354;51.296;16.924;2023-12-07T04:28:54;160.52;;;82.60;;
49458;SDS011;35354;51.296;16.924;2023-12-07T04:31:19;165.48;;;81.75;;
49458;SDS011;35354;51.296;16.924;2023-12-07T04:33:46;164.63;;;82.45;;
49458;SDS011;35354;51.296;16.924;2023-12-07T04:36:11;164.10;;;84.05;;
49458;SDS011;35354;51.296;16.924;2023-12-07T04:38:37;175.63;;;86.43;;
49458;SDS011;35354;51.296;16.924;2023-12-07T04:41:02;166.52;;;84.30;;
49458;SDS011;35354;51.296;16.924;2023-12-07T04:43:28;181.15;;;88.05;;
49458;SDS011;35354;51.296;16.924;2023-12-07T04:45:53;177.70;;;88.75;;
49458;SDS011;35354;51.296;16.924;2023-12-07T04:48:19;182.20;;;86.10;;
49458;SDS011;35354;51.296;16.924;2023-12-07T04:50:44;172.20;;;87.43;;
49458;SDS011;35354;51.296;16.924;2023-12-07T04:53:09;207.73;;;94.93;;
49458;SDS011;35354;51.296;16.924;2023-12-07T04:55:35;199.98;;;94.80;;
49458;SDS011;35354;51.296;16.924;2023-12-07T04:58:00;181.20;;;90.18;;
49458;SDS011;35354;51.296;16.924;2023-12-07T05:00:26;192.82;;;88.90;;
49458;SDS011;35354;51.296;16.924;2023-12-07T05:02:52;179.07;;;88.53;;
49458;SDS011;35354;51.296;16.924;2023-12-07T05:05:17;160.50;;;80.85;;
49458;SDS011;35354;51.296;16.924;2023-12-07T05:07:43;168.85;;;83.03;;
49458;SDS011;35354;51.296;16.924;2023-12-07T05:10:08;169.77;;;84.80;;
49458;SDS011;35354;51.296;16.924;2023-12-07T05:12:34;167.38;;;82.82;;
49458;SDS011;35354;51.296;16.924;2023-12-07T05:15:00;178.40;;;88.80;;
49458;SDS011;35354;51.296;16.924;2023-12-07T05:17:27;174.23;;;86.97;;
49458;SDS011;35354;51.296;16.924;2023-12-07T05:19:52;171.23;;;85.35;;
49458;SDS011;35354;51.296;16.924;2023-12-07T05:22:18;178.63;;;88.03;;
49458;SDS011;35354;51.296;16.924;2023-12-07T05:24:43;163.82;;;85.80;;
49458;SDS011;35354;51.296;16.924;2023-12-07T05:27:08;165.38;;;86.40;;
49458;SDS011;35354;51.296;16.924;2023-12-07T05:29:34;167.98;;;83.47;;
49458;SDS011;35354;51.296;16.924;2023-12-07T05:31:59;169.30;;;86.03;;
49458;SDS011;35354;51.296;16.924;2023-12-07T05:34:24;161.95;;;84.97;;
49458;SDS011;35354;51.296;16.924;2023-12-07T05:36:50;160.25;;;83.25;;
49458;SDS011;35354;51.296;16.924;2023-12-07T05:39:16;162.18;;;82.07;;
49458;SDS011;35354;51.296;16.924;2023-12-07T05:41:42;160.98;;;84.55;;
49458;SDS011;35354;51.296;16.924;2023-12-07T05:44:08;167.27;;;86.82;;
49458;SDS011;35354;51.296;16.924;2023-12-07T05:46:35;166.48;;;85.60;;
49458;SDS011;35354;51.296;16.924;2023-12-07T05:49:00;170.43;;;82.78;;
49458;SDS011;35354;51.296;16.924;2023-12-07T05:51:25;161.23;;;81.85;;
49458;SDS011;35354;51.296;16.924;2023-12-07T05:53:51;168.35;;;85.60;;
49458;SDS011;35354;51.296;16.924;2023-12-07T05:56:18;164.55;;;84.80;;
49458;SDS011;35354;51.296;16.924;2023-12-07T05:58:47;175.48;;;86.72;;
49458;SDS011;35354;51.296;16.924;2023-12-07T06:01:18;163.68;;;83.97;;
49458;SDS011;35354;51.296;16.924;2023-12-07T06:03:43;181.60;;;84.72;;
49458;SDS011;35354;51.296;16.924;2023-12-07T06:06:09;186.68;;;90.43;;
49458;SDS011;35354;51.296;16.924;2023-12-07T06:08:36;187.55;;;89.22;;
49458;SDS011;35354;51.296;16.924;2023-12-07T06:11:02;173.43;;;86.35;;
49458;SDS011;35354;51.296;16.924;2023-12-07T06:13:27;193.75;;;92.57;;
49458;SDS011;35354;51.296;16.924;2023-12-07T06:15:53;181.00;;;91.20;;
49458;SDS011;35354;51.296;16.924;2023-12-07T06:18:18;183.15;;;90.38;;
49458;SDS011;35354;51.296;16.924;2023-12-07T06:20:43;189.05;;;92.85;;
49458;SDS011;35354;51.296;16.924;2023-12-07T06:23:08;196.40;;;93.30;;
49458;SDS011;35354;51.296;16.924;2023-12-07T06:25:38;199.52;;;91.82;;
49458;SDS011;35354;51.296;16.924;2023-12-07T06:28:03;199.60;;;91.90;;
49458;SDS011;35354;51.296;16.924;2023-12-07T06:30:29;199.75;;;93.20;;
49458;SDS011;35354;51.296;16.924;2023-12-07T06:32:55;186.18;;;89.15;;
49458;SDS011;35354;51.296;16.924;2023-12-07T06:35:20;201.05;;;95.70;;
49458;SDS011;35354;51.296;16.924;2023-12-07T06:37:46;203.77;;;94.60;;
49458;SDS011;35354;51.296;16.924;2023-12-07T06:40:11;209.02;;;94.13;;
49458;SDS011;35354;51.296;16.924;2023-12-07T06:42:37;209.80;;;96.72;;
49458;SDS011;35354;51.296;16.924;2023-12-07T06:45:03;219.20;;;96.25;;
49458;SDS011;35354;51.296;16.924;2023-12-07T06:47:29;224.38;;;100.40;;
49458;SDS011;35354;51.296;16.924;2023-12-07T06:49:54;211.00;;;99.35;;
49458;SDS011;35354;51.296;16.924;2023-12-07T06:52:23;237.52;;;103.20;;
49458;SDS011;35354;51.296;16.924;2023-12-07T06:54:49;222.50;;;102.63;;
49458;SDS011;35354;51.296;16.924;2023-12-07T06:57:14;234.95;;;104.03;;
49458;SDS011;35354;51.296;16.924;2023-12-07T06:59:39;234.85;;;100.60;;
49458;SDS011;35354;51.296;16.924;2023-12-07T07:02:06;231.10;;;103.57;;
49458;SDS011;35354;51.296;16.924;2023-12-07T07:04:31;209.88;;;95.47;;
49458;SDS011;35354;51.296;16.924;2023-12-07T07:06:57;231.98;;;103.03;;
49458;SDS011;35354;51.296;16.924;2023-12-07T07:09:22;235.60;;;101.93;;
49458;SDS011;35354;51.296;16.924;2023-12-07T07:11:48;239.65;;;101.70;;
49458;SDS011;35354;51.296;16.924;2023-12-07T07:14:13;212.82;;;98.45;;
49458;SDS011;35354;51.296;16.924;2023-12-07T07:16:39;232.95;;;102.70;;
49458;SDS011;35354;51.296;16.924;2023-12-07T07:19:04;227.18;;;95.95;;
49458;SDS011;35354;51.296;16.924;2023-12-07T07:21:30;246.02;;;100.97;;
49458;SDS011;35354;51.296;16.924;2023-12-07T07:23:56;228.82;;;101.18;;
49458;SDS011;35354;51.296;16.924;2023-12-07T07:26:22;234.23;;;106.38;;
49458;SDS011;35354;51.296;16.924;2023-12-07T07:28:47;237.55;;;102.22;;
49458;SDS011;35354;51.296;16.924;2023-12-07T07:31:12;253.57;;;106.68;;
49458;SDS011;35354;51.296;16.924;2023-12-07T07:33:38;241.60;;;105.65;;
49458;SDS011;35354;51.296;16.924;2023-12-07T07:36:03;242.95;;;103.65;;
49458;SDS011;35354;51.296;16.924;2023-12-07T07:38:29;211.38;;;96.68;;
49458;SDS011;35354;51.296;16.924;2023-12-07T07:40:54;244.70;;;107.07;;
49458;SDS011;35354;51.296;16.924;2023-12-07T07:43:20;242.90;;;106.93;;
49458;SDS011;35354;51.296;16.924;2023-12-07T07:45:45;219.93;;;102.20;;
49458;SDS011;35354;51.296;16.924;2023-12-07T07:48:11;228.13;;;99.85;;
49458;SDS011;35354;51.296;16.924;2023-12-07T07:50:37;216.75;;;102.82;;
49458;SDS011;35354;51.296;16.924;2023-12-07T07:53:02;220.40;;;97.90;;
49458;SDS011;35354;51.296;16.924;2023-12-07T07:55:29;234.88;;;104.18;;
49458;SDS011;35354;51.296;16.924;2023-12-07T07:57:54;220.02;;;96.03;;
49458;SDS011;35354;51.296;16.924;2023-12-07T08:00:20;219.25;;;98.85;;
49458;SDS011;35354;51.296;16.924;2023-12-07T08:02:46;220.70;;;97.50;;
49458;SDS011;35354;51.296;16.924;2023-12-07T08:05:12;207.90;;;93.57;;
49458;SDS011;35354;51.296;16.924;2023-12-07T08:07:37;209.68;;;97.57;;
49458;SDS011;35354;51.296;16.924;2023-12-07T08:10:05;211.73;;;98.80;;
49458;SDS011;35354;51.296;16.924;2023-12-07T08:12:30;219.50;;;96.82;;
49458;SDS011;35354;51.296;16.924;2023-12-07T08:14:56;219.18;;;97.32;;
49458;SDS011;35354;51.296;16.924;2023-12-07T08:17:21;210.55;;;93.85;;
49458;SDS011;35354;51.296;16.924;2023-12-07T08:19:46;213.40;;;94.72;;
49458;SDS011;35354;51.296;16.924;2023-12-07T08:22:12;210.02;;;97.45;;
49458;SDS011;35354;51.296;16.924;2023-12-07T08:24:38;227.45;;;101.15;;
49458;SDS011;35354;51.296;16.924;2023-12-07T08:27:04;210.40;;;97.53;;
49458;SDS011;35354;51.296;16.924;2023-12-07T08:29:30;202.60;;;95.32;;
49458;SDS011;35354;51.296;16.924;2023-12-07T08:31:55;201.30;;;93.55;;
49458;SDS011;35354;51.296;16.924;2023-12-07T08:34:20;205.85;;;94.22;;
49458;SDS011;35354;51.296;16.924;2023-12-07T08:36:46;183.60;;;87.78;;
49458;SDS011;35354;51.296;16.924;2023-12-07T08:39:11;194.60;;;89.55;;
49458;SDS011;35354;51.296;16.924;2023-12-07T08:41:36;197.07;;;90.28;;
49458;SDS011;35354;51.296;16.924;2023-12-07T08:44:02;192.63;;;87.18;;
49458;SDS011;35354;51.296;16.924;2023-12-07T08:46:28;175.70;;;83.05;;
49458;SDS011;35354;51.296;16.924;2023-12-07T08:48:53;173.38;;;82.15;;
49458;SDS011;35354;51.296;16.924;2023-12-07T08:51:19;191.90;;;91.05;;
49458;SDS011;35354;51.296;16.924;2023-12-07T08:53:44;168.10;;;79.10;;
49458;SDS011;35354;51.296;16.924;2023-12-07T08:56:10;158.95;;;76.43;;
49458;SDS011;35354;51.296;16.924;2023-12-07T08:58:38;176.52;;;83.70;;
49458;SDS011;35354;51.296;16.924;2023-12-07T09:01:03;169.40;;;80.97;;
49458;SDS011;35354;51.296;16.924;2023-12-07T09:03:30;164.52;;;77.45;;
49458;SDS011;35354;51.296;16.924;2023-12-07T09:05:57;158.18;;;75.40;;
49458;SDS011;35354;51.296;16.924;2023-12-07T09:08:22;176.25;;;81.57;;
49458;SDS011;35354;51.296;16.924;2023-12-07T09:10:48;171.48;;;80.00;;
49458;SDS011;35354;51.296;16.924;2023-12-07T09:13:16;161.23;;;79.00;;
49458;SDS011;35354;51.296;16.924;2023-12-07T09:15:42;170.13;;;80.70;;
49458;SDS011;35354;51.296;16.924;2023-12-07T09:18:07;169.57;;;79.78;;
49458;SDS011;35354;51.296;16.924;2023-12-07T09:20:33;164.00;;;80.97;;
49458;SDS011;35354;51.296;16.924;2023-12-07T09:22:58;173.52;;;83.28;;
49458;SDS011;35354;51.296;16.924;2023-12-07T09:25:23;154.45;;;76.53;;
49458;SDS011;35354;51.296;16.924;2023-12-07T09:27:52;181.98;;;85.68;;
49458;SDS011;35354;51.296;16.924;2023-12-07T09:30:18;162.30;;;79.40;;
49458;SDS011;35354;51.296;16.924;2023-12-07T09:32:43;162.18;;;77.28;;
49458;SDS011;35354;51.296;16.924;2023-12-07T09:35:09;169.45;;;81.95;;
49458;SDS011;35354;51.296;16.924;2023-12-07T09:37:44;155.90;;;76.30;;
49458;SDS011;35354;51.296;16.924;2023-12-07T09:40:13;159.07;;;74.95;;
49458;SDS011;35354;51.296;16.924;2023-12-07T09:42:44;142.07;;;72.30;;
49458;SDS011;35354;51.296;16.924;2023-12-07T09:45:11;142.32;;;70.78;;
49458;SDS011;35354;51.296;16.924;2023-12-07T09:47:37;145.13;;;73.18;;
49458;SDS011;35354;51.296;16.924;2023-12-07T09:50:03;148.30;;;70.50;;
49458;SDS011;35354;51.296;16.924;2023-12-07T09:52:30;169.45;;;76.43;;
49458;SDS011;35354;51.296;16.924;2023-12-07T09:54:56;146.35;;;69.63;;
49458;SDS011;35354;51.296;16.924;2023-12-07T09:57:22;167.18;;;76.75;;
49458;SDS011;35354;51.296;16.924;2023-12-07T09:59:47;205.50;;;88.45;;
49458;SDS011;35354;51.296;16.924;2023-12-07T10:02:13;331.60;;;145.38;;
49458;SDS011;35354;51.296;16.924;2023-12-07T10:04:39;182.68;;;87.18;;
49458;SDS011;35354;51.296;16.924;2023-12-07T10:07:04;355.42;;;131.43;;
49458;SDS011;35354;51.296;16.924;2023-12-07T10:09:33;177.50;;;79.85;;
49458;SDS011;35354;51.296;16.924;2023-12-07T10:12:03;148.85;;;72.47;;
49458;SDS011;35354;51.296;16.924;2023-12-07T10:14:29;135.07;;;70.60;;
49458;SDS011;35354;51.296;16.924;2023-12-07T10:16:55;146.38;;;70.07;;
49458;SDS011;35354;51.296;16.924;2023-12-07T10:19:21;145.13;;;70.53;;
49458;SDS011;35354;51.296;16.924;2023-12-07T10:21:47;137.75;;;70.55;;
49458;SDS011;35354;51.296;16.924;2023-12-07T10:24:15;139.75;;;70.20;;
49458;SDS011;35354;51.296;16.924;2023-12-07T10:26:41;134.45;;;67.22;;
49458;SDS011;35354;51.296;16.924;2023-12-07T10:29:07;135.40;;;66.60;;
49458;SDS011;35354;51.296;16.924;2023-12-07T10:31:34;139.98;;;67.72;;
49458;SDS011;35354;51.296;16.924;2023-12-07T10:34:01;139.55;;;64.70;;
49458;SDS011;35354;51.296;16.924;2023-12-07T10:36:27;136.80;;;68.18;;
49458;SDS011;35354;51.296;16.924;2023-12-07T10:38:52;149.77;;;68.78;;
49458;SDS011;35354;51.296;16.924;2023-12-07T10:41:18;147.52;;;70.28;;
49458;SDS011;35354;51.296;16.924;2023-12-07T10:43:48;146.65;;;70.45;;
49458;SDS011;35354;51.296;16.924;2023-12-07T10:46:16;148.30;;;70.55;;
49458;SDS011;35354;51.296;16.924;2023-12-07T10:48:44;147.68;;;70.05;;
49458;SDS011;35354;51.296;16.924;2023-12-07T10:51:13;144.63;;;67.93;;
49458;SDS011;35354;51.296;16.924;2023-12-07T10:53:48;151.38;;;70.55;;
49458;SDS011;35354;51.296;16.924;2023-12-07T10:56:16;138.32;;;68.25;;
49458;SDS011;35354;51.296;16.924;2023-12-07T10:58:55;146.88;;;68.65;;
49458;SDS011;35354;51.296;16.924;2023-12-07T11:01:22;147.48;;;69.20;;
49458;SDS011;35354;51.296;16.924;2023-12-07T11:03:49;142.93;;;68.10;;
49458;SDS011;35354;51.296;16.924;2023-12-07T11:06:15;148.00;;;72.65;;
49458;SDS011;35354;51.296;16.924;2023-12-07T11:08:43;137.23;;;67.50;;
49458;SDS011;35354;51.296;16.924;2023-12-07T11:11:19;136.30;;;66.53;;
49458;SDS011;35354;51.296;16.924;2023-12-07T11:13:53;153.07;;;74.28;;
49458;SDS011;35354;51.296;16.924;2023-12-07T11:16:32;160.23;;;73.78;;
49458;SDS011;35354;51.296;16.924;2023-12-07T11:19:00;151.48;;;73.28;;
49458;SDS011;35354;51.296;16.924;2023-12-07T11:21:26;150.52;;;71.63;;
49458;SDS011;35354;51.296;16.924;2023-12-07T11:23:52;215.80;;;89.00;;
49458;SDS011;35354;51.296;16.924;2023-12-07T11:26:23;178.25;;;77.75;;
49458;SDS011;35354;51.296;16.924;2023-12-07T11:28:49;169.38;;;80.05;;
49458;SDS011;35354;51.296;16.924;2023-12-07T11:31:15;176.88;;;79.72;;
49458;SDS011;35354;51.296;16.924;2023-12-07T11:33:41;154.32;;;72.45;;
49458;SDS011;35354;51.296;16.924;2023-12-07T11:38:33;150.35;;;68.93;;
49458;SDS011;35354;51.296;16.924;2023-12-07T11:41:01;154.85;;;70.00;;
49458;SDS011;35354;51.296;16.924;2023-12-07T11:46:02;157.88;;;72.03;;
49458;SDS011;35354;51.296;16.924;2023-12-07T11:48:28;166.02;;;74.25;;
49458;SDS011;35354;51.296;16.924;2023-12-07T11:50:54;158.45;;;72.78;;
49458;SDS011;35354;51.296;16.924;2023-12-07T11:53:21;156.98;;;74.43;;
49458;SDS011;35354;51.296;16.924;2023-12-07T11:55:51;158.18;;;72.03;;
49458;SDS011;35354;51.296;16.924;2023-12-07T11:58:16;162.82;;;77.15;;
49458;SDS011;35354;51.296;16.924;2023-12-07T12:00:43;166.23;;;78.78;;
49458;SDS011;35354;51.296;16.924;2023-12-07T12:03:09;168.50;;;78.18;;
49458;SDS011;35354;51.296;16.924;2023-12-07T12:05:36;162.57;;;78.20;;
49458;SDS011;35354;51.296;16.924;2023-12-07T12:08:03;163.27;;;78.68;;
49458;SDS011;35354;51.296;16.924;2023-12-07T12:10:29;172.65;;;80.90;;
49458;SDS011;35354;51.296;16.924;2023-12-07T12:12:55;178.48;;;82.78;;
49458;SDS011;35354;51.296;16.924;2023-12-07T12:15:20;173.45;;;83.15;;
49458;SDS011;35354;51.296;16.924;2023-12-07T12:17:46;184.63;;;84.93;;
49458;SDS011;35354;51.296;16.924;2023-12-07T12:20:11;176.40;;;81.47;;
49458;SDS011;35354;51.296;16.924;2023-12-07T12:22:42;179.48;;;81.95;;
49458;SDS011;35354;51.296;16.924;2023-12-07T12:25:08;175.82;;;83.10;;
49458;SDS011;35354;51.296;16.924;2023-12-07T12:27:33;195.80;;;85.55;;
49458;SDS011;35354;51.296;16.924;2023-12-07T12:29:59;213.45;;;93.85;;
49458;SDS011;35354;51.296;16.924;2023-12-07T12:32:25;182.30;;;82.97;;
49458;SDS011;35354;51.296;16.924;2023-12-07T12:34:51;161.77;;;75.82;;
49458;SDS011;35354;51.296;16.924;2023-12-07T12:37:17;138.93;;;65.25;;
49458;SDS011;35354;51.296;16.924;2023-12-07T12:39:42;139.23;;;64.85;;
49458;SDS011;35354;51.296;16.924;2023-12-07T12:42:08;162.70;;;75.57;;
49458;SDS011;35354;51.296;16.924;2023-12-07T12:44:42;163.48;;;75.72;;
49458;SDS011;35354;51.296;16.924;2023-12-07T12:47:08;160.98;;;76.03;;
49458;SDS011;35354;51.296;16.924;2023-12-07T12:49:37;200.93;;;87.03;;
49458;SDS011;35354;51.296;16.924;2023-12-07T12:52:09;203.20;;;86.57;;
49458;SDS011;35354;51.296;16.924;2023-12-07T12:57:55;160.27;;;74.13;;
49458;SDS011;35354;51.296;16.924;2023-12-07T13:00:58;192.40;;;88.07;;
49458;SDS011;35354;51.296;16.924;2023-12-07T13:03:24;158.98;;;74.88;;
49458;SDS011;35354;51.296;16.924;2023-12-07T13:05:49;131.45;;;66.35;;
49458;SDS011;35354;51.296;16.924;2023-12-07T13:08:15;133.82;;;62.92;;
49458;SDS011;35354;51.296;16.924;2023-12-07T13:10:40;115.28;;;58.88;;
49458;SDS011;35354;51.296;16.924;2023-12-07T13:13:06;123.15;;;60.40;;
49458;SDS011;35354;51.296;16.924;2023-12-07T13:15:32;118.50;;;58.65;;
49458;SDS011;35354;51.296;16.924;2023-12-07T13:17:57;126.38;;;58.70;;
49458;SDS011;35354;51.296;16.924;2023-12-07T13:20:22;119.82;;;56.55;;
49458;SDS011;35354;51.296;16.924;2023-12-07T13:22:48;109.40;;;54.30;;
49458;SDS011;35354;51.296;16.924;2023-12-07T13:25:13;123.43;;;58.28;;
49458;SDS011;35354;51.296;16.924;2023-12-07T13:27:41;118.82;;;56.42;;
49458;SDS011;35354;51.296;16.924;2023-12-07T13:30:08;115.32;;;53.10;;
49458;SDS011;35354;51.296;16.924;2023-12-07T13:32:34;115.97;;;54.05;;
49458;SDS011;35354;51.296;16.924;2023-12-07T13:35:02;124.35;;;58.33;;
49458;SDS011;35354;51.296;16.924;2023-12-07T13:37:28;112.28;;;55.08;;
49458;SDS011;35354;51.296;16.924;2023-12-07T13:39:53;121.97;;;57.40;;
49458;SDS011;35354;51.296;16.924;2023-12-07T13:42:23;114.00;;;55.45;;
49458;SDS011;35354;51.296;16.924;2023-12-07T13:44:52;106.15;;;53.33;;
49458;SDS011;35354;51.296;16.924;2023-12-07T13:47:25;114.03;;;54.28;;
49458;SDS011;35354;51.296;16.924;2023-12-07T13:49:55;120.82;;;55.75;;
49458;SDS011;35354;51.296;16.924;2023-12-07T13:52:21;110.35;;;52.28;;
49458;SDS011;35354;51.296;16.924;2023-12-07T13:54:47;106.60;;;52.72;;
49458;SDS011;35354;51.296;16.924;2023-12-07T13:57:13;109.88;;;52.30;;
49458;SDS011;35354;51.296;16.924;2023-12-07T13:59:39;106.70;;;52.53;;
49458;SDS011;35354;51.296;16.924;2023-12-07T14:02:05;115.70;;;56.42;;
49458;SDS011;35354;51.296;16.924;2023-12-07T14:04:30;106.50;;;54.20;;